Time,TemperatureF,DewpointF,PressureIn,WindDirection,WindDirectionDegrees,WindSpeedMPH,WindSpeedGustMPH,Humidity,HourlyPrecipIn,Conditions,Clouds,dailyrainin,SolarRadiationWatts/m^2,SoftwareType,DateUTC
2013-10-13 00:00:00,59.5,58.7,30.05,NE,36,0.0,0.0,97,0.00,,---,0.00,0.00,VWS V14.01,2013-10-13 04:00:00,
2013-10-13 00:01:00,59.3,58.5,30.05,NE,36,0.0,0.0,97,0.00,,---,0.00,0.00,VWS V14.01,2013-10-13 04:01:00,
2013-10-13 00:02:00,59.4,58.5,30.05,NE,36,0.0,0.0,97,0.00,,---,0.00,0.00,VWS V14.01,2013-10-13 04:02:00,
2013-10-13 00:05:00,59.4,58.5,30.05,NE,36,0.0,0.0,97,0.00,,---,0.00,0.00,VWS V14.01,2013-10-13 04:05:00,
2013-10-13 00:10:00,59.7,58.8,30.05,NE,36,0.0,0.0,97,0.00,,---,0.00,0.00,VWS V14.01,2013-10-13 04:10:00,
2013-10-13 00:11:00,59.6,58.8,30.05,NE,36,0.0,0.0,97,0.00,,---,0.00,0.00,VWS V14.01,2013-10-13 04:11:00,
2013-10-13 00:16:00,59.6,58.8,30.05,NE,36,0.0,0.0,97,0.00,,---,0.00,0.00,VWS V14.01,2013-10-13 04:16:00,
2013-10-13 00:20:00,59.9,59.0,30.05,NE,36,0.0,0.0,97,0.00,,---,0.00,0.00,VWS V14.01,2013-10-13 04:20:00,
2013-10-13 00:21:00,59.8,59.0,30.05,NE,36,0.0,0.0,97,0.00,,---,0.00,0.00,VWS V14.01,2013-10-13 04:21:00,
2013-10-13 00:26:00,59.9,59.0,30.05,NE,36,0.0,0.0,97,0.00,,---,0.00,0.00,VWS V14.01,2013-10-13 04:26:00,
2013-10-13 00:30:00,60.2,59.3,30.05,NE,36,0.0,0.0,97,0.00,,---,0.00,0.00,VWS V14.01,2013-10-13 04:30:00,
2013-10-13 00:31:00,60.0,59.2,30.05,NE,36,0.0,0.0,97,0.00,,---,0.00,0.00,VWS V14.01,2013-10-13 04:31:00,
2013-10-13 00:36:00,60.1,59.2,30.05,NE,36,0.0,0.0,97,0.00,,---,0.00,0.00,VWS V14.01,2013-10-13 04:36:00,
2013-10-13 00:40:00,60.4,59.5,30.05,NE,36,0.0,0.0,97,0.00,,---,0.00,0.00,VWS V14.01,2013-10-13 04:40:00,
2013-10-13 00:41:00,60.3,59.5,30.05,NE,36,0.0,0.0,97,0.00,,---,0.00,0.00,VWS V14.01,2013-10-13 04:41:00,
2013-10-13 00:47:00,60.4,59.5,30.05,NE,36,0.0,0.0,97,0.00,,---,0.00,0.00,VWS V14.01,2013-10-13 04:47:00,
2013-10-13 00:50:00,60.6,59.8,30.06,NE,36,0.0,0.0,97,0.00,,---,0.00,0.00,VWS V14.01,2013-10-13 04:50:00,
2013-10-13 00:52:00,60.5,59.7,30.06,NE,36,0.0,0.0,97,0.00,,---,0.00,0.00,VWS V14.01,2013-10-13 04:52:00,
2013-10-13 00:57:00,60.6,59.8,30.06,NE,36,0.0,0.0,97,0.00,,---,0.00,0.00,VWS V14.01,2013-10-13 04:57:00,
2013-10-13 01:00:00,60.8,60.2,30.06,NE,36,0.0,0.0,98,0.00,,---,0.00,0.00,VWS V14.01,2013-10-13 05:00:00,
2013-10-13 01:02:00,60.7,59.8,30.06,NE,36,0.0,0.0,97,0.00,,---,0.00,0.00,VWS V14.01,2013-10-13 05:02:00,
2013-10-13 01:07:00,60.8,60.2,30.06,NE,36,0.0,0.0,98,0.00,,---,0.00,0.00,VWS V14.01,2013-10-13 05:07:00,
2013-10-13 01:10:00,60.8,60.0,30.06,NE,36,0.0,0.0,97,0.00,,---,0.00,0.00,VWS V14.01,2013-10-13 05:10:00,
2013-10-13 01:12:00,60.8,60.0,30.06,NE,36,0.0,0.0,97,0.00,,---,0.00,0.00,VWS V14.01,2013-10-13 05:12:00,
2013-10-13 01:17:00,60.8,60.0,30.06,NE,36,0.0,0.0,97,0.00,,---,0.00,0.00,VWS V14.01,2013-10-13 05:17:00,
2013-10-13 01:20:00,60.8,60.0,30.06,NE,36,0.0,0.0,97,0.00,,---,0.00,0.00,VWS V14.01,2013-10-13 05:20:00,
2013-10-13 01:23:00,60.8,60.0,30.06,NE,36,0.0,0.0,97,0.00,,---,0.00,0.00,VWS V14.01,2013-10-13 05:23:00,
2013-10-13 01:28:00,60.8,60.0,30.06,NE,36,0.0,0.0,97,0.00,,---,0.00,0.00,VWS V14.01,2013-10-13 05:28:00,
2013-10-13 01:30:00,60.8,60.0,30.06,NE,36,0.0,0.0,97,0.01,,---,0.01,0.00,VWS V14.01,2013-10-13 05:30:00,
2013-10-13 01:33:00,60.8,60.0,30.06,NE,36,0.0,0.0,97,0.00,,---,0.00,0.00,VWS V14.01,2013-10-13 05:33:00,
2013-10-13 01:38:00,60.8,60.0,30.06,NE,36,0.0,0.0,97,0.01,,---,0.01,0.00,VWS V14.01,2013-10-13 05:38:00,
2013-10-13 01:40:00,60.8,60.0,30.06,NE,36,0.0,0.0,97,0.01,,---,0.01,0.00,VWS V14.01,2013-10-13 05:40:00,
2013-10-13 01:43:00,60.8,60.0,30.06,NE,36,0.0,0.0,97,0.01,,---,0.01,0.00,VWS V14.01,2013-10-13 05:43:00,
2013-10-13 01:48:00,60.8,60.0,30.06,NE,36,0.0,0.0,97,0.01,,---,0.01,0.00,VWS V14.01,2013-10-13 05:48:00,
2013-10-13 01:50:00,60.8,60.0,30.06,NE,36,0.0,0.0,97,0.01,,---,0.01,0.00,VWS V14.01,2013-10-13 05:50:00,
2013-10-13 01:53:00,60.8,60.0,30.06,NE,36,0.0,0.0,97,0.01,,---,0.01,0.00,VWS V14.01,2013-10-13 05:53:00,
2013-10-13 01:58:00,60.8,60.0,30.06,NE,36,0.0,0.0,97,0.01,,---,0.01,0.00,VWS V14.01,2013-10-13 05:58:00,
2013-10-13 02:00:00,60.8,60.0,30.06,NE,36,0.0,0.0,97,0.01,,---,0.01,0.00,VWS V14.01,2013-10-13 06:00:00,
2013-10-13 02:03:00,60.8,60.0,30.06,NE,36,0.0,0.0,97,0.01,,---,0.01,0.00,VWS V14.01,2013-10-13 06:03:00,
2013-10-13 02:08:00,60.8,60.0,30.06,NE,36,0.0,0.0,97,0.01,,---,0.01,0.00,VWS V14.01,2013-10-13 06:08:00,
2013-10-13 02:10:00,60.8,60.0,30.07,NE,36,0.0,0.0,97,0.01,,---,0.01,0.00,VWS V14.01,2013-10-13 06:10:00,
2013-10-13 02:14:00,60.8,60.0,30.07,NE,36,0.0,0.0,97,0.01,,---,0.01,0.00,VWS V14.01,2013-10-13 06:14:00,
2013-10-13 02:19:00,60.8,60.0,30.06,NE,36,0.0,0.0,97,0.01,,---,0.01,0.00,VWS V14.01,2013-10-13 06:19:00,
2013-10-13 02:20:00,60.8,60.0,30.07,NE,36,0.0,0.0,97,0.01,,---,0.01,0.00,VWS V14.01,2013-10-13 06:20:00,
2013-10-13 02:24:00,60.9,60.0,30.07,NE,36,0.0,0.0,97,0.01,,---,0.01,0.00,VWS V14.01,2013-10-13 06:24:00,
2013-10-13 02:29:00,60.9,60.0,30.06,NE,36,0.0,0.0,97,0.01,,---,0.01,0.00,VWS V14.01,2013-10-13 06:29:00,
2013-10-13 02:30:00,61.0,60.2,30.06,NE,36,0.0,1.0,97,0.01,,---,0.01,0.00,VWS V14.01,2013-10-13 06:30:00,
2013-10-13 02:34:00,60.9,60.0,30.07,NE,36,0.0,1.0,97,0.01,,---,0.01,0.00,VWS V14.01,2013-10-13 06:34:00,
2013-10-13 02:39:00,61.0,60.2,30.06,NE,36,0.0,0.0,97,0.00,,---,0.01,0.00,VWS V14.01,2013-10-13 06:39:00,
2013-10-13 02:40:00,61.0,60.2,30.06,NE,36,0.0,0.0,97,0.00,,---,0.01,0.00,VWS V14.01,2013-10-13 06:40:00,
2013-10-13 02:44:00,61.1,60.2,30.06,NE,36,0.0,0.0,97,0.00,,---,0.01,0.00,VWS V14.01,2013-10-13 06:44:00,
2013-10-13 02:50:00,61.0,60.2,30.06,NE,36,0.0,0.0,97,0.00,,---,0.01,0.00,VWS V14.01,2013-10-13 06:50:00,
2013-10-13 02:55:00,60.9,60.0,30.06,NE,36,0.0,0.0,97,0.00,,---,0.01,0.00,VWS V14.01,2013-10-13 06:55:00,
2013-10-13 03:00:00,60.8,60.0,30.06,NE,36,0.0,0.0,97,0.00,,---,0.01,0.00,VWS V14.01,2013-10-13 07:00:00,
2013-10-13 03:05:00,60.7,59.8,30.06,NE,36,0.0,0.0,97,0.00,,---,0.01,0.00,VWS V14.01,2013-10-13 07:05:00,
2013-10-13 03:10:00,60.6,59.8,30.06,NE,36,0.0,0.0,97,0.00,,---,0.01,0.00,VWS V14.01,2013-10-13 07:10:00,
2013-10-13 03:15:00,60.5,59.7,30.06,NE,36,0.0,0.0,97,0.00,,---,0.01,0.00,VWS V14.01,2013-10-13 07:15:00,
2013-10-13 03:20:00,60.5,59.7,30.06,NE,36,0.0,0.0,97,0.00,,---,0.01,0.00,VWS V14.01,2013-10-13 07:20:00,
2013-10-13 03:25:00,60.5,59.7,30.05,NE,36,0.0,0.0,97,0.00,,---,0.01,0.00,VWS V14.01,2013-10-13 07:25:00,
2013-10-13 03:30:00,60.2,59.3,30.05,NE,36,0.0,0.0,97,0.00,,---,0.01,0.00,VWS V14.01,2013-10-13 07:30:00,
2013-10-13 03:31:00,60.4,59.5,30.05,NE,36,0.0,0.0,97,0.00,,---,0.01,0.00,VWS V14.01,2013-10-13 07:31:00,
2013-10-13 03:36:00,60.3,59.5,30.05,NE,36,0.0,0.0,97,0.00,,---,0.01,0.00,VWS V14.01,2013-10-13 07:36:00,
2013-10-13 03:40:00,59.8,58.7,30.05,NE,36,0.0,0.0,96,0.00,,---,0.01,0.00,VWS V14.01,2013-10-13 07:40:00,
2013-10-13 03:41:00,60.1,59.2,30.05,NE,36,0.0,0.0,97,0.00,,---,0.01,0.00,VWS V14.01,2013-10-13 07:41:00,
2013-10-13 03:46:00,59.9,58.8,30.06,NE,36,0.0,0.0,96,0.00,,---,0.01,0.00,VWS V14.01,2013-10-13 07:46:00,
2013-10-13 03:50:00,59.6,58.5,30.06,NE,36,0.0,0.0,96,0.00,,---,0.01,0.00,VWS V14.01,2013-10-13 07:50:00,
2013-10-13 03:51:00,59.7,58.6,30.06,NE,36,0.0,0.0,96,0.00,,---,0.01,0.00,VWS V14.01,2013-10-13 07:51:00,
2013-10-13 03:56:00,59.6,58.5,30.05,NE,36,0.0,0.0,96,0.00,,---,0.01,0.00,VWS V14.01,2013-10-13 07:56:00,
2013-10-13 04:00:00,59.4,58.3,30.06,NE,36,0.0,0.0,96,0.00,,---,0.01,0.00,VWS V14.01,2013-10-13 08:00:00,
2013-10-13 04:01:00,59.5,58.4,30.06,NE,36,0.0,0.0,96,0.00,,---,0.01,0.00,VWS V14.01,2013-10-13 08:01:00,
2013-10-13 04:06:00,59.4,58.3,30.06,NE,36,0.0,0.0,96,0.00,,---,0.01,0.00,VWS V14.01,2013-10-13 08:06:00,
2013-10-13 04:10:00,59.2,58.1,30.06,NE,36,0.0,0.0,96,0.00,,---,0.01,0.00,VWS V14.01,2013-10-13 08:10:00,
2013-10-13 04:11:00,59.3,58.2,30.06,NE,36,0.0,0.0,96,0.00,,---,0.01,0.00,VWS V14.01,2013-10-13 08:11:00,
2013-10-13 04:17:00,59.2,58.1,30.06,NE,36,0.0,0.0,96,0.00,,---,0.01,0.00,VWS V14.01,2013-10-13 08:17:00,
2013-10-13 04:20:00,59.1,58.2,30.06,NE,36,0.0,0.0,97,0.00,,---,0.01,0.00,VWS V14.01,2013-10-13 08:20:00,
2013-10-13 04:22:00,59.1,58.0,30.06,NE,36,0.0,0.0,96,0.00,,---,0.01,0.00,VWS V14.01,2013-10-13 08:22:00,
2013-10-13 04:27:00,59.1,58.2,30.06,NE,36,0.0,0.0,97,0.00,,---,0.01,0.00,VWS V14.01,2013-10-13 08:27:00,
2013-10-13 04:30:00,59.1,58.2,30.06,NE,36,0.0,0.0,97,0.00,,---,0.01,0.00,VWS V14.01,2013-10-13 08:30:00,
2013-10-13 04:32:00,59.1,58.2,30.06,NE,36,0.0,0.0,97,0.00,,---,0.01,0.00,VWS V14.01,2013-10-13 08:32:00,
2013-10-13 04:37:00,59.1,58.2,30.06,NE,36,0.0,0.0,97,0.00,,---,0.01,0.00,VWS V14.01,2013-10-13 08:37:00,
2013-10-13 04:40:00,59.2,58.3,30.06,NE,36,0.0,0.0,97,0.00,,---,0.01,0.00,VWS V14.01,2013-10-13 08:40:00,
2013-10-13 04:42:00,59.1,58.2,30.06,NE,36,0.0,0.0,97,0.00,,---,0.01,0.00,VWS V14.01,2013-10-13 08:42:00,
2013-10-13 04:47:00,59.2,58.3,30.06,NE,36,0.0,0.0,97,0.00,,---,0.01,0.00,VWS V14.01,2013-10-13 08:47:00,
2013-10-13 04:50:00,59.3,58.5,30.06,NE,36,0.0,0.0,97,0.00,,---,0.01,0.00,VWS V14.01,2013-10-13 08:50:00,
2013-10-13 04:52:00,59.3,58.5,30.06,NE,36,0.0,0.0,97,0.00,,---,0.01,0.00,VWS V14.01,2013-10-13 08:52:00,
2013-10-13 04:57:00,59.3,58.5,30.06,NE,36,0.0,0.0,97,0.00,,---,0.01,0.00,VWS V14.01,2013-10-13 08:57:00,
2013-10-13 05:00:00,59.5,58.7,30.06,NE,36,0.0,0.0,97,0.00,,---,0.01,0.00,VWS V14.01,2013-10-13 09:00:00,
2013-10-13 05:02:00,59.4,58.5,30.06,NE,36,0.0,0.0,97,0.00,,---,0.01,0.00,VWS V14.01,2013-10-13 09:02:00,
2013-10-13 05:07:00,59.5,58.7,30.06,NE,36,0.0,0.0,97,0.00,,---,0.01,0.00,VWS V14.01,2013-10-13 09:07:00,
2013-10-13 05:10:00,59.7,59.1,30.06,NE,36,0.0,0.0,98,0.00,,---,0.01,0.00,VWS V14.01,2013-10-13 09:10:00,
2013-10-13 05:12:00,59.6,59.0,30.06,NE,36,0.0,0.0,98,0.00,,---,0.01,0.00,VWS V14.01,2013-10-13 09:12:00,
2013-10-13 05:18:00,59.7,59.1,30.06,NE,36,0.0,0.0,98,0.00,,---,0.01,0.00,VWS V14.01,2013-10-13 09:18:00,
2013-10-13 05:20:00,59.8,59.2,30.06,NE,36,0.0,0.0,98,0.00,,---,0.01,0.00,VWS V14.01,2013-10-13 09:20:00,
2013-10-13 05:23:00,59.8,59.2,30.06,NE,36,0.0,0.0,98,0.00,,---,0.01,0.00,VWS V14.01,2013-10-13 09:23:00,
2013-10-13 05:28:00,59.8,59.2,30.06,NE,36,0.0,0.0,98,0.00,,---,0.01,0.00,VWS V14.01,2013-10-13 09:28:00,
2013-10-13 05:30:00,59.9,59.3,30.06,NE,36,0.0,0.0,98,0.00,,---,0.01,0.00,VWS V14.01,2013-10-13 09:30:00,
2013-10-13 05:33:00,59.9,59.3,30.06,NE,36,0.0,0.0,98,0.00,,---,0.01,0.00,VWS V14.01,2013-10-13 09:33:00,
2013-10-13 05:38:00,59.9,59.3,30.06,NE,36,0.0,0.0,98,0.00,,---,0.01,0.00,VWS V14.01,2013-10-13 09:38:00,
2013-10-13 05:40:00,59.9,59.0,30.06,NE,36,0.0,0.0,97,0.00,,---,0.01,0.00,VWS V14.01,2013-10-13 09:40:00,
2013-10-13 05:43:00,59.9,59.0,30.06,NE,36,0.0,0.0,97,0.00,,---,0.01,0.00,VWS V14.01,2013-10-13 09:43:00,
2013-10-13 05:48:00,59.9,59.0,30.06,NE,36,0.0,0.0,97,0.00,,---,0.01,0.00,VWS V14.01,2013-10-13 09:48:00,
2013-10-13 05:50:00,60.0,59.2,30.07,NE,36,0.0,0.0,97,0.00,,---,0.01,0.00,VWS V14.01,2013-10-13 09:50:00,
2013-10-13 05:53:00,60.0,59.2,30.07,NE,36,0.0,0.0,97,0.00,,---,0.01,0.00,VWS V14.01,2013-10-13 09:53:00,
2013-10-13 05:58:00,60.0,59.2,30.07,NE,36,0.0,0.0,97,0.00,,---,0.01,0.00,VWS V14.01,2013-10-13 09:58:00,
2013-10-13 06:00:00,59.9,59.0,30.07,NE,36,0.0,0.0,97,0.00,,---,0.01,0.00,VWS V14.01,2013-10-13 10:00:00,
2013-10-13 06:03:00,59.9,59.0,30.07,NE,36,0.0,0.0,97,0.00,,---,0.01,0.00,VWS V14.01,2013-10-13 10:03:00,
2013-10-13 06:08:00,59.9,59.0,30.07,NE,36,0.0,0.0,97,0.00,,---,0.01,0.00,VWS V14.01,2013-10-13 10:08:00,
2013-10-13 06:10:00,59.9,59.0,30.07,NE,36,0.0,0.0,97,0.00,,---,0.01,0.00,VWS V14.01,2013-10-13 10:10:00,
2013-10-13 06:14:00,59.9,59.0,30.07,NE,36,0.0,0.0,97,0.00,,---,0.01,0.00,VWS V14.01,2013-10-13 10:14:00,
2013-10-13 06:19:00,59.8,59.0,30.07,NE,36,0.0,0.0,97,0.00,,---,0.01,0.00,VWS V14.01,2013-10-13 10:19:00,
2013-10-13 06:20:00,59.7,58.8,30.08,NE,36,0.0,0.0,97,0.00,,---,0.01,0.00,VWS V14.01,2013-10-13 10:20:00,
2013-10-13 06:24:00,59.8,59.0,30.07,NE,36,0.0,0.0,97,0.00,,---,0.01,0.00,VWS V14.01,2013-10-13 10:24:00,
2013-10-13 06:29:00,59.7,58.8,30.08,NE,36,0.0,0.0,97,0.00,,---,0.01,0.00,VWS V14.01,2013-10-13 10:29:00,
2013-10-13 06:30:00,59.6,58.8,30.08,NE,36,0.0,0.0,97,0.00,,---,0.01,0.00,VWS V14.01,2013-10-13 10:30:00,
2013-10-13 06:34:00,59.7,58.8,30.08,NE,36,0.0,0.0,97,0.00,,---,0.01,0.00,VWS V14.01,2013-10-13 10:34:00,
2013-10-13 06:39:00,59.6,58.8,30.08,NE,36,0.0,0.0,97,0.00,,---,0.01,0.00,VWS V14.01,2013-10-13 10:39:00,
2013-10-13 06:40:00,59.6,58.8,30.08,NE,36,0.0,0.0,97,0.00,,---,0.01,0.00,VWS V14.01,2013-10-13 10:40:00,
2013-10-13 06:44:00,59.6,58.8,30.08,NE,36,0.0,0.0,97,0.00,,---,0.01,0.00,VWS V14.01,2013-10-13 10:44:00,
2013-10-13 06:49:00,59.6,58.8,30.08,NE,36,0.0,0.0,97,0.00,,---,0.01,0.00,VWS V14.01,2013-10-13 10:49:00,
2013-10-13 06:50:00,59.6,58.8,30.08,NE,36,0.0,0.0,97,0.00,,---,0.01,0.00,VWS V14.01,2013-10-13 10:50:00,
2013-10-13 06:54:00,59.6,58.8,30.08,NE,36,0.0,0.0,97,0.00,,---,0.01,0.00,VWS V14.01,2013-10-13 10:54:00,
2013-10-13 06:59:00,59.6,58.8,30.09,NE,36,0.0,0.0,97,0.00,,---,0.01,0.00,VWS V14.01,2013-10-13 10:59:00,
2013-10-13 07:00:00,59.6,58.8,30.09,NE,36,0.0,0.0,97,0.00,,---,0.01,0.00,VWS V14.01,2013-10-13 11:00:00,
2013-10-13 07:04:00,59.6,58.8,30.08,NE,36,0.0,0.0,97,0.00,,---,0.01,0.00,VWS V14.01,2013-10-13 11:04:00,
2013-10-13 07:10:00,59.6,58.8,30.09,NE,36,0.0,0.0,97,0.00,,---,0.01,0.00,VWS V14.01,2013-10-13 11:10:00,
2013-10-13 07:15:00,59.6,58.8,30.09,NE,36,0.0,0.0,97,0.00,,---,0.01,0.00,VWS V14.01,2013-10-13 11:15:00,
2013-10-13 07:20:00,59.5,58.7,30.09,NE,36,0.0,0.0,97,0.00,,---,0.01,0.00,VWS V14.01,2013-10-13 11:20:00,
2013-10-13 07:25:00,59.5,58.7,30.09,NE,36,0.0,0.0,97,0.00,,---,0.01,0.00,VWS V14.01,2013-10-13 11:25:00,
2013-10-13 07:30:00,59.5,58.7,30.09,NE,36,0.0,0.0,97,0.00,,---,0.01,0.00,VWS V14.01,2013-10-13 11:30:00,
2013-10-13 07:35:00,59.5,58.7,30.10,NE,36,0.0,0.0,97,0.00,,---,0.01,0.00,VWS V14.01,2013-10-13 11:35:00,
2013-10-13 07:40:00,59.4,58.5,30.10,NE,36,0.0,0.0,97,0.00,,---,0.01,0.00,VWS V14.01,2013-10-13 11:40:00,
2013-10-13 07:45:00,59.4,58.5,30.10,NE,36,0.0,0.0,97,0.00,,---,0.01,5.00,VWS V14.01,2013-10-13 11:45:00,
2013-10-13 07:50:00,59.4,58.5,30.10,NE,36,0.0,0.0,97,0.00,,---,0.01,11.00,VWS V14.01,2013-10-13 11:50:00,
2013-10-13 07:55:00,59.3,58.5,30.10,NE,36,0.0,0.0,97,0.00,,---,0.01,14.00,VWS V14.01,2013-10-13 11:55:00,
2013-10-13 08:00:00,59.3,58.5,30.10,NE,36,0.0,0.0,97,0.00,,---,0.01,18.00,VWS V14.01,2013-10-13 12:00:00,
2013-10-13 08:06:00,59.3,58.5,30.10,NE,36,0.0,0.0,97,0.00,,---,0.01,30.00,VWS V14.01,2013-10-13 12:06:00,
2013-10-13 08:10:00,59.4,58.5,30.10,NE,36,0.0,0.0,97,0.00,,---,0.01,30.00,VWS V14.01,2013-10-13 12:10:00,
2013-10-13 08:11:00,59.3,58.5,30.10,NE,36,0.0,0.0,97,0.00,,---,0.01,32.00,VWS V14.01,2013-10-13 12:11:00,
2013-10-13 08:16:00,59.4,58.5,30.10,NE,36,0.0,0.0,97,0.00,,---,0.01,30.00,VWS V14.01,2013-10-13 12:16:00,
2013-10-13 08:20:00,59.6,59.0,30.11,NE,36,0.0,0.0,98,0.00,,---,0.01,33.00,VWS V14.01,2013-10-13 12:20:00,
2013-10-13 08:21:00,59.5,58.7,30.11,NE,36,0.0,0.0,97,0.00,,---,0.01,35.00,VWS V14.01,2013-10-13 12:21:00,
2013-10-13 08:26:00,59.5,58.9,30.11,NE,36,0.0,0.0,98,0.00,,---,0.01,33.00,VWS V14.01,2013-10-13 12:26:00,
2013-10-13 08:30:00,60.0,59.4,30.11,NE,36,0.0,0.0,98,0.00,,---,0.01,46.00,VWS V14.01,2013-10-13 12:30:00,
2013-10-13 08:31:00,59.7,59.1,30.11,NE,36,0.0,0.0,98,0.00,,---,0.01,37.00,VWS V14.01,2013-10-13 12:31:00,
2013-10-13 08:36:00,59.9,59.3,30.11,NE,36,0.0,0.0,98,0.00,,---,0.01,44.00,VWS V14.01,2013-10-13 12:36:00,
2013-10-13 08:40:00,60.3,59.7,30.11,NE,36,0.0,0.0,98,0.00,,---,0.01,49.00,VWS V14.01,2013-10-13 12:40:00,
2013-10-13 08:41:00,60.1,59.5,30.11,NE,36,0.0,0.0,98,0.00,,---,0.01,47.00,VWS V14.01,2013-10-13 12:41:00,
2013-10-13 08:46:00,60.2,59.6,30.11,NE,36,0.0,0.0,98,0.00,,---,0.01,47.00,VWS V14.01,2013-10-13 12:46:00,
2013-10-13 08:50:00,60.6,60.0,30.12,NE,36,0.0,0.0,98,0.00,,---,0.01,49.00,VWS V14.01,2013-10-13 12:50:00,
2013-10-13 08:51:00,60.4,59.8,30.12,NE,36,0.0,0.0,98,0.00,,---,0.01,46.00,VWS V14.01,2013-10-13 12:51:00,
2013-10-13 08:56:00,60.5,59.9,30.12,NE,36,0.0,0.0,98,0.00,,---,0.01,47.00,VWS V14.01,2013-10-13 12:56:00,
2013-10-13 09:00:00,60.9,60.3,30.12,NE,36,0.0,0.0,98,0.00,,---,0.01,63.00,VWS V14.01,2013-10-13 13:00:00,
2013-10-13 09:01:00,60.7,60.1,30.12,NE,36,0.0,0.0,98,0.00,,---,0.01,49.00,VWS V14.01,2013-10-13 13:01:00,
2013-10-13 09:07:00,60.8,60.2,30.13,NE,36,0.0,0.0,98,0.00,,---,0.01,63.00,VWS V14.01,2013-10-13 13:07:00,
2013-10-13 09:10:00,61.1,60.5,30.13,NE,36,0.0,0.0,98,0.00,,---,0.01,77.00,VWS V14.01,2013-10-13 13:10:00,
2013-10-13 09:12:00,61.0,60.4,30.13,NE,36,0.0,0.0,98,0.00,,---,0.01,72.00,VWS V14.01,2013-10-13 13:12:00,
2013-10-13 09:17:00,61.1,60.5,30.13,NE,36,0.0,0.0,98,0.00,,---,0.01,77.00,VWS V14.01,2013-10-13 13:17:00,
2013-10-13 09:20:00,61.5,60.9,30.13,NE,36,0.0,0.0,98,0.00,,---,0.01,91.00,VWS V14.01,2013-10-13 13:20:00,
2013-10-13 09:22:00,61.3,60.7,30.13,NE,36,0.0,0.0,98,0.00,,---,0.01,83.00,VWS V14.01,2013-10-13 13:22:00,
2013-10-13 09:27:00,61.4,60.8,30.13,NE,36,0.0,0.0,98,0.00,,---,0.01,91.00,VWS V14.01,2013-10-13 13:27:00,
2013-10-13 09:30:00,61.9,61.3,30.13,NE,36,0.0,0.0,98,0.00,,---,0.01,104.00,VWS V14.01,2013-10-13 13:30:00,
2013-10-13 09:32:00,61.7,61.1,30.13,NE,36,0.0,0.0,98,0.00,,---,0.01,91.00,VWS V14.01,2013-10-13 13:32:00,
2013-10-13 09:37:00,61.9,61.3,30.13,NE,36,0.0,0.0,98,0.00,,---,0.01,104.00,VWS V14.01,2013-10-13 13:37:00,
2013-10-13 09:40:00,62.3,61.7,30.13,NE,36,0.0,0.0,98,0.00,,---,0.01,144.00,VWS V14.01,2013-10-13 13:40:00,
2013-10-13 09:42:00,62.1,61.5,30.13,NE,36,0.0,0.0,98,0.00,,---,0.01,125.00,VWS V14.01,2013-10-13 13:42:00,
2013-10-13 09:47:00,62.3,61.7,30.13,NE,36,0.0,0.0,98,0.00,,---,0.01,144.00,VWS V14.01,2013-10-13 13:47:00,
2013-10-13 09:50:00,62.4,61.8,30.14,NE,36,0.0,0.0,98,0.00,,---,0.01,151.00,VWS V14.01,2013-10-13 13:50:00,
2013-10-13 09:52:00,62.4,61.8,30.14,NE,36,0.0,0.0,98,0.00,,---,0.01,156.00,VWS V14.01,2013-10-13 13:52:00,
2013-10-13 09:57:00,62.4,61.8,30.14,NE,36,0.0,0.0,98,0.00,,---,0.01,151.00,VWS V14.01,2013-10-13 13:57:00,
2013-10-13 10:00:00,62.5,61.9,30.14,NE,36,0.0,0.0,98,0.00,,---,0.01,156.00,VWS V14.01,2013-10-13 14:00:00,
2013-10-13 10:03:00,62.4,61.8,30.14,NE,36,0.0,0.0,98,0.00,,---,0.01,155.00,VWS V14.01,2013-10-13 14:03:00,
2013-10-13 10:08:00,62.5,61.9,30.14,NE,36,0.0,0.0,98,0.00,,---,0.01,156.00,VWS V14.01,2013-10-13 14:08:00,
2013-10-13 10:10:00,62.3,61.7,30.14,NE,36,0.0,2.0,98,0.00,,---,0.01,163.00,VWS V14.01,2013-10-13 14:10:00,
2013-10-13 10:13:00,62.3,61.7,30.14,NE,36,0.0,2.0,98,0.00,,---,0.01,165.00,VWS V14.01,2013-10-13 14:13:00,
2013-10-13 10:18:00,62.4,61.8,30.14,NE,36,0.0,0.0,98,0.00,,---,0.01,162.00,VWS V14.01,2013-10-13 14:18:00,
2013-10-13 10:20:00,62.7,62.1,30.14,NE,36,0.0,0.0,98,0.00,,---,0.01,167.00,VWS V14.01,2013-10-13 14:20:00,
2013-10-13 10:23:00,62.5,61.9,30.14,NE,36,0.0,0.0,98,0.00,,---,0.01,163.00,VWS V14.01,2013-10-13 14:23:00,
2013-10-13 10:28:00,62.7,62.1,30.14,NE,36,0.0,0.0,98,0.00,,---,0.01,167.00,VWS V14.01,2013-10-13 14:28:00,
2013-10-13 10:30:00,63.0,62.1,30.14,NE,36,0.0,1.0,97,0.00,,---,0.01,178.00,VWS V14.01,2013-10-13 14:30:00,
2013-10-13 10:33:00,62.9,62.3,30.14,NE,36,0.0,1.0,98,0.00,,---,0.01,160.00,VWS V14.01,2013-10-13 14:33:00,
2013-10-13 10:38:00,63.0,62.1,30.14,NE,36,0.0,0.0,97,0.00,,---,0.01,181.00,VWS V14.01,2013-10-13 14:38:00,
2013-10-13 10:40:00,63.4,62.5,30.14,NE,36,0.0,1.0,97,0.00,,---,0.01,185.00,VWS V14.01,2013-10-13 14:40:00,
2013-10-13 10:43:00,63.1,62.2,30.14,NE,36,0.0,1.0,97,0.00,,---,0.01,188.00,VWS V14.01,2013-10-13 14:43:00,
2013-10-13 10:48:00,63.4,62.5,30.15,NE,36,0.0,0.0,97,0.00,,---,0.01,188.00,VWS V14.01,2013-10-13 14:48:00,
2013-10-13 10:50:00,63.6,62.4,30.14,NE,36,0.0,1.0,96,0.00,,---,0.01,199.00,VWS V14.01,2013-10-13 14:50:00,
2013-10-13 10:54:00,63.5,62.3,30.14,NE,36,0.0,1.0,96,0.00,,---,0.01,197.00,VWS V14.01,2013-10-13 14:54:00,
2013-10-13 10:59:00,63.7,62.5,30.15,NE,36,0.0,1.0,96,0.00,,---,0.01,199.00,VWS V14.01,2013-10-13 14:59:00,
2013-10-13 11:00:00,64.1,62.6,30.14,NE,36,0.0,1.0,95,0.00,,---,0.01,179.00,VWS V14.01,2013-10-13 15:00:00,
2013-10-13 11:04:00,64.0,62.5,30.14,NE,36,0.0,1.0,95,0.00,,---,0.01,192.00,VWS V14.01,2013-10-13 15:04:00,
2013-10-13 11:09:00,64.2,62.7,30.15,NE,36,0.0,0.0,95,0.00,,---,0.01,176.00,VWS V14.01,2013-10-13 15:09:00,
2013-10-13 11:10:00,64.7,62.9,30.15,NE,36,0.0,0.0,94,0.00,,---,0.01,197.00,VWS V14.01,2013-10-13 15:10:00,
2013-10-13 11:14:00,64.4,62.6,30.14,NE,36,0.0,0.0,94,0.00,,---,0.01,192.00,VWS V14.01,2013-10-13 15:14:00,
2013-10-13 11:19:00,64.7,62.6,30.14,NE,36,0.0,0.0,93,0.00,,---,0.01,193.00,VWS V14.01,2013-10-13 15:19:00,
2013-10-13 11:20:00,65.3,63.2,30.15,NE,36,0.0,0.0,93,0.00,,---,0.01,214.00,VWS V14.01,2013-10-13 15:20:00,
2013-10-13 11:24:00,65.1,63.0,30.15,NE,36,0.0,0.0,93,0.00,,---,0.01,202.00,VWS V14.01,2013-10-13 15:24:00,
2013-10-13 11:29:00,65.5,63.4,30.15,NE,36,0.0,0.0,93,0.00,,---,0.01,227.00,VWS V14.01,2013-10-13 15:29:00,
2013-10-13 11:30:00,66.1,63.4,30.15,NE,36,0.0,0.0,91,0.00,,---,0.01,262.00,VWS V14.01,2013-10-13 15:30:00,
2013-10-13 11:34:00,65.8,63.4,30.15,NE,36,0.0,0.0,92,0.00,,---,0.01,244.00,VWS V14.01,2013-10-13 15:34:00,
2013-10-13 11:39:00,66.2,63.5,30.15,NE,36,0.0,1.0,91,0.00,,---,0.01,272.00,VWS V14.01,2013-10-13 15:39:00,
2013-10-13 11:40:00,66.8,63.8,30.15,NE,36,0.0,1.0,90,0.00,,---,0.01,290.00,VWS V14.01,2013-10-13 15:40:00,
2013-10-13 11:44:00,66.6,63.6,30.14,NE,36,0.0,1.0,90,0.00,,---,0.01,288.00,VWS V14.01,2013-10-13 15:44:00,
2013-10-13 11:49:00,67.0,64.0,30.15,NE,36,0.0,1.0,90,0.00,,---,0.01,292.00,VWS V14.01,2013-10-13 15:49:00,
2013-10-13 11:50:00,67.7,63.7,30.15,NE,36,0.0,1.0,87,0.00,,---,0.01,292.00,VWS V14.01,2013-10-13 15:50:00,
2013-10-13 11:55:00,67.5,63.8,30.15,NE,36,0.0,1.0,88,0.00,,---,0.01,325.00,VWS V14.01,2013-10-13 15:55:00,
2013-10-13 12:00:00,67.9,63.9,30.15,NE,36,1.0,1.0,87,0.00,,---,0.01,244.00,VWS V14.01,2013-10-13 16:00:00,
2013-10-13 12:05:00,67.7,62.4,30.14,NE,34,0.0,2.0,83,0.00,,---,0.01,243.00,VWS V14.01,2013-10-13 16:05:00,
2013-10-13 12:10:00,67.7,62.4,30.14,NE,37,0.0,0.0,83,0.00,,---,0.01,309.00,VWS V14.01,2013-10-13 16:10:00,
2013-10-13 12:15:00,67.8,62.8,30.14,NE,36,0.0,1.0,84,0.00,,---,0.01,278.00,VWS V14.01,2013-10-13 16:15:00,
2013-10-13 12:20:00,68.0,63.0,30.14,NE,36,0.0,0.0,84,0.00,,---,0.01,281.00,VWS V14.01,2013-10-13 16:20:00,
2013-10-13 12:25:00,68.3,63.3,30.14,NE,36,0.0,0.0,84,0.00,,---,0.01,329.00,VWS V14.01,2013-10-13 16:25:00,
2013-10-13 12:30:00,68.7,64.0,30.14,NE,36,0.0,0.0,85,0.00,,---,0.01,415.00,VWS V14.01,2013-10-13 16:30:00,
2013-10-13 12:35:00,69.1,63.7,30.14,NE,37,0.0,1.0,83,0.00,,---,0.01,373.00,VWS V14.01,2013-10-13 16:35:00,
2013-10-13 12:40:00,69.4,63.7,30.14,NE,37,0.0,0.0,82,0.00,,---,0.01,392.00,VWS V14.01,2013-10-13 16:40:00,
2013-10-13 12:46:00,69.9,63.5,30.14,NE,37,0.0,1.0,80,0.00,,---,0.01,399.00,VWS V14.01,2013-10-13 16:46:00,
2013-10-13 12:50:00,70.3,64.2,30.14,NE,53,0.0,3.0,81,0.00,,---,0.01,290.00,VWS V14.01,2013-10-13 16:50:00,
2013-10-13 12:51:00,70.1,63.3,30.14,West,277,0.0,3.0,79,0.00,,---,0.01,380.00,VWS V14.01,2013-10-13 16:51:00,
2013-10-13 12:56:00,70.2,64.1,30.14,NE,53,0.0,3.0,81,0.00,,---,0.01,306.00,VWS V14.01,2013-10-13 16:56:00,
2013-10-13 13:00:00,70.3,63.8,30.14,NE,51,0.0,1.0,80,0.00,,---,0.01,236.00,VWS V14.01,2013-10-13 17:00:00,
2013-10-13 13:01:00,70.3,63.5,30.14,NE,51,0.0,1.0,79,0.00,,---,0.01,267.00,VWS V14.01,2013-10-13 17:01:00,
2013-10-13 13:06:00,70.3,63.8,30.14,NE,51,0.0,1.0,80,0.00,,---,0.01,243.00,VWS V14.01,2013-10-13 17:06:00,
2013-10-13 13:10:00,70.5,64.0,30.13,NE,51,0.0,1.0,80,0.00,,---,0.01,218.00,VWS V14.01,2013-10-13 17:10:00,
2013-10-13 13:11:00,70.5,64.0,30.14,NE,51,0.0,0.0,80,0.00,,---,0.01,230.00,VWS V14.01,2013-10-13 17:11:00,
2013-10-13 13:16:00,70.5,63.3,30.14,NE,51,0.0,1.0,78,0.00,,---,0.01,218.00,VWS V14.01,2013-10-13 17:16:00,
2013-10-13 13:20:00,70.6,64.1,30.13,NE,51,0.0,1.0,80,0.00,,---,0.01,292.00,VWS V14.01,2013-10-13 17:20:00,
2013-10-13 13:21:00,70.4,63.2,30.13,NE,51,0.0,1.0,78,0.00,,---,0.01,248.00,VWS V14.01,2013-10-13 17:21:00,
2013-10-13 13:27:00,70.5,64.0,30.13,NE,51,0.0,1.0,80,0.00,,---,0.01,292.00,VWS V14.01,2013-10-13 17:27:00,
2013-10-13 13:30:00,70.6,63.4,30.12,NE,50,0.0,2.0,78,0.00,,---,0.01,338.00,VWS V14.01,2013-10-13 17:30:00,
2013-10-13 13:32:00,70.5,63.3,30.13,NE,51,1.0,2.0,78,0.00,,---,0.01,313.00,VWS V14.01,2013-10-13 17:32:00,
2013-10-13 13:37:00,70.6,63.4,30.12,NE,50,0.0,2.0,78,0.00,,---,0.01,336.00,VWS V14.01,2013-10-13 17:37:00,
2013-10-13 13:40:00,70.7,62.8,30.12,WNW,299,0.0,3.0,76,0.00,,---,0.01,346.00,VWS V14.01,2013-10-13 17:40:00,
2013-10-13 13:42:00,70.7,63.1,30.12,NE,53,0.0,1.0,77,0.00,,---,0.01,345.00,VWS V14.01,2013-10-13 17:42:00,
2013-10-13 13:47:00,70.8,62.9,30.12,WNW,288,2.0,2.0,76,0.00,,---,0.01,346.00,VWS V14.01,2013-10-13 17:47:00,
2013-10-13 13:50:00,70.9,63.7,30.12,NNE,23,0.0,2.0,78,0.00,,---,0.01,352.00,VWS V14.01,2013-10-13 17:50:00,
2013-10-13 13:52:00,70.6,63.4,30.12,NW,321,0.0,1.0,78,0.00,,---,0.01,357.00,VWS V14.01,2013-10-13 17:52:00,
2013-10-13 13:57:00,70.9,63.7,30.12,NNE,22,0.0,2.0,78,0.00,,---,0.01,352.00,VWS V14.01,2013-10-13 17:57:00,
2013-10-13 14:00:00,71.3,64.1,30.11,NNE,28,0.0,1.0,78,0.00,,---,0.01,325.00,VWS V14.01,2013-10-13 18:00:00,
2013-10-13 14:02:00,71.1,64.3,30.11,NNE,28,0.0,1.0,79,0.00,,---,0.01,348.00,VWS V14.01,2013-10-13 18:02:00,
2013-10-13 14:08:00,71.3,64.1,30.11,NNE,28,0.0,1.0,78,0.00,,---,0.01,325.00,VWS V14.01,2013-10-13 18:08:00,
2013-10-13 14:10:00,71.6,63.6,30.11,NNE,28,0.0,1.0,76,0.00,,---,0.01,260.00,VWS V14.01,2013-10-13 18:10:00,
2013-10-13 14:13:00,71.6,64.4,30.11,NNE,28,0.0,0.0,78,0.00,,---,0.01,258.00,VWS V14.01,2013-10-13 18:13:00,
2013-10-13 14:18:00,71.6,63.6,30.11,NNE,28,0.0,0.0,76,0.00,,---,0.01,272.00,VWS V14.01,2013-10-13 18:18:00,
2013-10-13 14:20:00,71.5,63.9,30.11,NNW,338,0.0,3.0,77,0.00,,---,0.01,258.00,VWS V14.01,2013-10-13 18:20:00,
2013-10-13 14:23:00,71.5,63.5,30.11,NNW,339,0.0,3.0,76,0.00,,---,0.01,308.00,VWS V14.01,2013-10-13 18:23:00,
2013-10-13 14:28:00,71.5,63.2,30.11,NNW,338,0.0,0.0,75,0.00,,---,0.01,248.00,VWS V14.01,2013-10-13 18:28:00,
2013-10-13 14:30:00,71.2,63.6,30.11,North,5,0.0,2.0,77,0.00,,---,0.01,125.00,VWS V14.01,2013-10-13 18:30:00,
2013-10-13 14:33:00,71.5,63.2,30.11,NNW,338,0.0,1.0,75,0.00,,---,0.01,234.00,VWS V14.01,2013-10-13 18:33:00,
2013-10-13 14:38:00,71.2,63.3,30.11,North,5,0.0,1.0,76,0.00,,---,0.01,229.00,VWS V14.01,2013-10-13 18:38:00,
2013-10-13 14:40:00,71.5,63.9,30.11,North,5,0.0,2.0,77,0.00,,---,0.01,285.00,VWS V14.01,2013-10-13 18:40:00,
2013-10-13 14:43:00,71.3,64.1,30.11,North,5,0.0,2.0,78,0.00,,---,0.01,262.00,VWS V14.01,2013-10-13 18:43:00,
2013-10-13 14:49:00,71.5,63.5,30.10,North,5,0.0,0.0,76,0.00,,---,0.01,295.00,VWS V14.01,2013-10-13 18:49:00,
2013-10-13 14:50:00,72.0,63.7,30.10,North,5,1.0,1.0,75,0.00,,---,0.01,339.00,VWS V14.01,2013-10-13 18:50:00,
2013-10-13 14:54:00,71.8,63.8,30.10,North,5,0.0,1.0,76,0.00,,---,0.01,334.00,VWS V14.01,2013-10-13 18:54:00,
2013-10-13 14:59:00,72.0,63.7,30.10,NW,304,0.0,2.0,75,0.00,,---,0.01,325.00,VWS V14.01,2013-10-13 18:59:00,
2013-10-13 15:00:00,72.0,63.3,30.10,NW,315,0.0,2.0,74,0.00,,---,0.01,309.00,VWS V14.01,2013-10-13 19:00:00,
2013-10-13 15:04:00,72.0,63.3,30.10,NW,315,0.0,2.0,74,0.00,,---,0.01,316.00,VWS V14.01,2013-10-13 19:04:00,
2013-10-13 15:09:00,72.0,64.0,30.09,NW,324,0.0,1.0,76,0.00,,---,0.01,301.00,VWS V14.01,2013-10-13 19:09:00,
2013-10-13 15:10:00,72.4,64.4,30.09,NE,53,0.0,1.0,76,0.00,,---,0.01,236.00,VWS V14.01,2013-10-13 19:10:00,
2013-10-13 15:14:00,72.2,64.2,30.10,NE,53,0.0,1.0,76,0.00,,---,0.01,264.00,VWS V14.01,2013-10-13 19:14:00,
2013-10-13 15:19:00,72.5,64.5,30.09,NE,53,0.0,1.0,76,0.00,,---,0.01,227.00,VWS V14.01,2013-10-13 19:19:00,
2013-10-13 15:20:00,72.8,64.4,30.09,NE,55,0.0,1.0,75,0.00,,---,0.01,206.00,VWS V14.01,2013-10-13 19:20:00,
2013-10-13 15:24:00,72.7,63.9,30.09,NE,53,0.0,1.0,74,0.00,,---,0.01,209.00,VWS V14.01,2013-10-13 19:24:00,
2013-10-13 15:29:00,72.8,64.8,30.09,NE,55,0.0,1.0,76,0.00,,---,0.01,202.00,VWS V14.01,2013-10-13 19:29:00,
2013-10-13 15:30:00,73.0,65.0,30.09,NE,53,0.0,1.0,76,0.00,,---,0.01,214.00,VWS V14.01,2013-10-13 19:30:00,
2013-10-13 15:35:00,72.9,64.9,30.09,NE,53,0.0,1.0,76,0.00,,---,0.01,206.00,VWS V14.01,2013-10-13 19:35:00,
2013-10-13 15:40:00,73.1,65.1,30.10,NE,53,0.0,0.0,76,0.00,,---,0.01,216.00,VWS V14.01,2013-10-13 19:40:00,
2013-10-13 15:45:00,73.1,64.7,30.10,NE,51,1.0,1.0,75,0.00,,---,0.01,218.00,VWS V14.01,2013-10-13 19:45:00,
2013-10-13 15:50:00,73.1,65.1,30.10,NE,51,0.0,0.0,76,0.00,,---,0.01,246.00,VWS V14.01,2013-10-13 19:50:00,
2013-10-13 15:55:00,73.1,64.3,30.10,NE,51,0.0,1.0,74,0.00,,---,0.01,239.00,VWS V14.01,2013-10-13 19:55:00,
2013-10-13 16:00:00,73.2,63.6,30.10,NE,51,0.0,0.0,72,0.00,,---,0.01,236.00,VWS V14.01,2013-10-13 20:00:00,
2013-10-13 16:05:00,73.2,64.0,30.09,NE,51,0.0,1.0,73,0.00,,---,0.01,243.00,VWS V14.01,2013-10-13 20:05:00,
2013-10-13 16:10:00,73.0,63.8,30.09,NE,51,0.0,1.0,73,0.00,,---,0.01,260.00,VWS V14.01,2013-10-13 20:10:00,
2013-10-13 16:16:00,73.0,64.6,30.09,NE,51,0.0,1.0,75,0.00,,---,0.01,353.00,VWS V14.01,2013-10-13 20:16:00,
2013-10-13 16:20:00,73.6,63.6,30.09,NE,50,0.0,2.0,71,0.00,,---,0.01,211.00,VWS V14.01,2013-10-13 20:20:00,
2013-10-13 16:21:00,73.3,64.5,30.09,NE,50,0.0,2.0,74,0.00,,---,0.01,267.00,VWS V14.01,2013-10-13 20:21:00,
2013-10-13 16:26:00,73.6,64.4,30.09,NE,50,0.0,2.0,73,0.00,,---,0.01,230.00,VWS V14.01,2013-10-13 20:26:00,
2013-10-13 16:30:00,73.2,63.6,30.09,NE,51,0.0,2.0,72,0.00,,---,0.01,139.00,VWS V14.01,2013-10-13 20:30:00,
2013-10-13 16:31:00,73.5,63.5,30.09,NE,50,0.0,2.0,71,0.00,,---,0.01,199.00,VWS V14.01,2013-10-13 20:31:00,
2013-10-13 16:36:00,73.3,63.7,30.09,NE,50,0.0,2.0,72,0.00,,---,0.01,156.00,VWS V14.01,2013-10-13 20:36:00,
2013-10-13 16:40:00,72.6,63.5,30.09,NE,51,0.0,3.0,73,0.00,,---,0.01,118.00,VWS V14.01,2013-10-13 20:40:00,
2013-10-13 16:41:00,72.9,63.8,30.09,NE,50,0.0,1.0,73,0.00,,---,0.01,120.00,VWS V14.01,2013-10-13 20:41:00,
2013-10-13 16:46:00,72.6,63.5,30.09,NE,51,2.0,3.0,73,0.00,,---,0.01,120.00,VWS V14.01,2013-10-13 20:46:00,
2013-10-13 16:50:00,72.1,63.4,30.10,NE,51,0.0,1.0,74,0.00,,---,0.01,116.00,VWS V14.01,2013-10-13 20:50:00,
2013-10-13 16:51:00,72.4,63.3,30.10,NE,51,0.0,1.0,73,0.00,,---,0.01,114.00,VWS V14.01,2013-10-13 20:51:00,
2013-10-13 16:57:00,72.1,63.0,30.10,NE,51,0.0,1.0,73,0.00,,---,0.01,116.00,VWS V14.01,2013-10-13 20:57:00,
2013-10-13 17:00:00,71.9,62.8,30.10,NE,51,0.0,1.0,73,0.00,,---,0.01,135.00,VWS V14.01,2013-10-13 21:00:00,
2013-10-13 17:02:00,72.0,63.3,30.10,NE,51,0.0,1.0,74,0.00,,---,0.01,120.00,VWS V14.01,2013-10-13 21:02:00,
2013-10-13 17:07:00,71.9,63.2,30.10,NE,51,0.0,1.0,74,0.00,,---,0.01,135.00,VWS V14.01,2013-10-13 21:07:00,
2013-10-13 17:10:00,71.7,63.0,30.10,NE,51,0.0,1.0,74,0.00,,---,0.01,109.00,VWS V14.01,2013-10-13 21:10:00,
2013-10-13 17:12:00,71.8,62.7,30.10,NE,51,0.0,0.0,73,0.00,,---,0.01,125.00,VWS V14.01,2013-10-13 21:12:00,
2013-10-13 17:17:00,71.7,63.0,30.10,NE,51,0.0,1.0,74,0.00,,---,0.01,109.00,VWS V14.01,2013-10-13 21:17:00,
2013-10-13 17:20:00,71.5,62.8,30.10,NE,51,0.0,1.0,74,0.00,,---,0.01,76.00,VWS V14.01,2013-10-13 21:20:00,
2013-10-13 17:22:00,71.7,63.0,30.10,NE,51,0.0,0.0,74,0.00,,---,0.01,84.00,VWS V14.01,2013-10-13 21:22:00,
2013-10-13 17:27:00,71.6,62.9,30.10,NE,51,0.0,1.0,74,0.00,,---,0.01,76.00,VWS V14.01,2013-10-13 21:27:00,
2013-10-13 17:30:00,71.1,63.9,30.10,NE,51,0.0,1.0,78,0.00,,---,0.01,76.00,VWS V14.01,2013-10-13 21:30:00,
2013-10-13 17:32:00,71.4,63.8,30.09,NE,51,0.0,0.0,77,0.00,,---,0.01,79.00,VWS V14.01,2013-10-13 21:32:00,
2013-10-13 17:38:00,71.1,63.9,30.10,NE,51,0.0,1.0,78,0.00,,---,0.01,76.00,VWS V14.01,2013-10-13 21:38:00,
2013-10-13 17:40:00,70.7,64.2,30.09,NE,51,0.0,1.0,80,0.00,,---,0.01,77.00,VWS V14.01,2013-10-13 21:40:00,
2013-10-13 17:43:00,70.9,64.1,30.10,NE,51,0.0,0.0,79,0.00,,---,0.01,77.00,VWS V14.01,2013-10-13 21:43:00,
2013-10-13 17:48:00,70.6,64.1,30.09,NE,51,0.0,0.0,80,0.00,,---,0.01,76.00,VWS V14.01,2013-10-13 21:48:00,
2013-10-13 17:50:00,70.0,63.9,30.10,NE,51,0.0,1.0,81,0.00,,---,0.01,40.00,VWS V14.01,2013-10-13 21:50:00,
2013-10-13 17:53:00,70.3,63.8,30.09,NE,51,0.0,1.0,80,0.00,,---,0.01,69.00,VWS V14.01,2013-10-13 21:53:00,
2013-10-13 17:58:00,70.0,63.9,30.10,NE,51,0.0,0.0,81,0.00,,---,0.01,37.00,VWS V14.01,2013-10-13 21:58:00,
2013-10-13 18:00:00,69.4,63.7,30.10,NE,51,0.0,1.0,82,0.00,,---,0.01,19.00,VWS V14.01,2013-10-13 22:00:00,
2013-10-13 18:03:00,69.7,64.0,30.10,NE,51,0.0,1.0,82,0.00,,---,0.01,25.00,VWS V14.01,2013-10-13 22:03:00,
2013-10-13 18:08:00,69.4,63.7,30.10,NE,51,0.0,0.0,82,0.00,,---,0.01,18.00,VWS V14.01,2013-10-13 22:08:00,
2013-10-13 18:10:00,68.7,63.3,30.10,NE,51,0.0,1.0,83,0.00,,---,0.01,12.00,VWS V14.01,2013-10-13 22:10:00,
2013-10-13 18:14:00,69.0,63.3,30.10,NE,51,0.0,1.0,82,0.00,,---,0.01,14.00,VWS V14.01,2013-10-13 22:14:00,
2013-10-13 18:19:00,68.6,63.2,30.10,NE,51,0.0,0.0,83,0.00,,---,0.01,12.00,VWS V14.01,2013-10-13 22:19:00,
2013-10-13 18:20:00,67.9,62.9,30.10,NE,51,0.0,0.0,84,0.00,,---,0.01,12.00,VWS V14.01,2013-10-13 22:20:00,
2013-10-13 18:24:00,68.2,63.2,30.10,NE,51,0.0,0.0,84,0.00,,---,0.01,12.00,VWS V14.01,2013-10-13 22:24:00,
2013-10-13 18:29:00,67.8,62.8,30.10,NE,51,0.0,0.0,84,0.00,,---,0.01,12.00,VWS V14.01,2013-10-13 22:29:00,
2013-10-13 18:30:00,67.2,62.5,30.10,NE,51,0.0,1.0,85,0.00,,---,0.01,11.00,VWS V14.01,2013-10-13 22:30:00,
2013-10-13 18:34:00,67.5,62.5,30.10,NE,51,0.0,0.0,84,0.00,,---,0.01,11.00,VWS V14.01,2013-10-13 22:34:00,
2013-10-13 18:39:00,67.0,62.3,30.10,NE,51,0.0,1.0,85,0.00,,---,0.01,11.00,VWS V14.01,2013-10-13 22:39:00,
2013-10-13 18:40:00,66.5,62.2,30.10,NE,51,0.0,1.0,86,0.00,,---,0.01,9.00,VWS V14.01,2013-10-13 22:40:00,
2013-10-13 18:44:00,66.6,62.3,30.10,NE,51,0.0,1.0,86,0.00,,---,0.01,9.00,VWS V14.01,2013-10-13 22:44:00,
2013-10-13 18:49:00,66.4,62.1,30.10,NE,51,0.0,0.0,86,0.00,,---,0.01,7.00,VWS V14.01,2013-10-13 22:49:00,
2013-10-13 18:50:00,66.1,62.1,30.10,NE,51,0.0,0.0,87,0.00,,---,0.01,0.00,VWS V14.01,2013-10-13 22:50:00,
2013-10-13 18:55:00,66.2,62.2,30.10,NE,51,0.0,0.0,87,0.00,,---,0.01,5.00,VWS V14.01,2013-10-13 22:55:00,
2013-10-13 19:00:00,66.0,62.0,30.10,NE,51,0.0,0.0,87,0.00,,---,0.01,0.00,VWS V14.01,2013-10-13 23:00:00,
2013-10-13 19:05:00,65.8,61.8,30.10,NE,51,0.0,0.0,87,0.00,,---,0.01,0.00,VWS V14.01,2013-10-13 23:05:00,
2013-10-13 19:10:00,65.6,61.6,30.10,NE,51,0.0,0.0,87,0.00,,---,0.01,0.00,VWS V14.01,2013-10-13 23:10:00,
2013-10-13 19:15:00,65.3,61.7,30.10,NE,51,0.0,0.0,88,0.00,,---,0.01,0.00,VWS V14.01,2013-10-13 23:15:00,
2013-10-13 19:20:00,65.1,61.5,30.11,NE,51,0.0,0.0,88,0.00,,---,0.01,0.00,VWS V14.01,2013-10-13 23:20:00,
2013-10-13 19:25:00,64.8,61.2,30.11,NE,51,0.0,0.0,88,0.00,,---,0.01,0.00,VWS V14.01,2013-10-13 23:25:00,
2013-10-13 19:30:00,64.6,61.0,30.11,NE,51,0.0,0.0,88,0.00,,---,0.01,0.00,VWS V14.01,2013-10-13 23:30:00,
2013-10-13 19:36:00,64.4,61.1,30.11,NE,51,0.0,0.0,89,0.00,,---,0.01,0.00,VWS V14.01,2013-10-13 23:36:00,
2013-10-13 19:40:00,64.3,61.6,30.12,East,95,0.0,1.0,91,0.00,,---,0.01,0.00,VWS V14.01,2013-10-13 23:40:00,
2013-10-13 19:41:00,64.3,61.3,30.11,East,95,0.0,1.0,90,0.00,,---,0.01,0.00,VWS V14.01,2013-10-13 23:41:00,
2013-10-13 19:46:00,64.3,61.3,30.12,East,95,0.0,1.0,90,0.00,,---,0.01,0.00,VWS V14.01,2013-10-13 23:46:00,
2013-10-13 19:50:00,64.3,61.6,30.12,East,95,0.0,0.0,91,0.00,,---,0.01,0.00,VWS V14.01,2013-10-13 23:50:00,
2013-10-13 19:51:00,64.3,61.6,30.12,East,95,0.0,0.0,91,0.00,,---,0.01,0.00,VWS V14.01,2013-10-13 23:51:00,
2013-10-13 19:56:00,64.3,61.6,30.12,East,95,0.0,0.0,91,0.00,,---,0.01,0.00,VWS V14.01,2013-10-13 23:56:00,
2013-10-13 20:00:00,64.3,61.6,30.12,East,95,0.0,0.0,91,0.00,,---,0.01,0.00,VWS V14.01,2013-10-14 00:00:00,
2013-10-13 20:01:00,64.3,61.6,30.12,East,95,0.0,0.0,91,0.00,,---,0.01,0.00,VWS V14.01,2013-10-14 00:01:00,
2013-10-13 20:06:00,64.4,61.7,30.12,East,95,0.0,0.0,91,0.00,,---,0.01,0.00,VWS V14.01,2013-10-14 00:06:00,
2013-10-13 20:10:00,64.4,61.7,30.12,East,95,0.0,0.0,91,0.00,,---,0.01,0.00,VWS V14.01,2013-10-14 00:10:00,
2013-10-13 20:11:00,64.4,61.7,30.12,East,95,0.0,0.0,91,0.00,,---,0.01,0.00,VWS V14.01,2013-10-14 00:11:00,
2013-10-13 20:17:00,64.4,61.7,30.12,East,95,0.0,0.0,91,0.00,,---,0.01,0.00,VWS V14.01,2013-10-14 00:17:00,
2013-10-13 20:20:00,64.3,61.6,30.13,East,95,0.0,0.0,91,0.00,,---,0.01,0.00,VWS V14.01,2013-10-14 00:20:00,
2013-10-13 20:22:00,64.3,61.6,30.12,East,95,0.0,0.0,91,0.00,,---,0.01,0.00,VWS V14.01,2013-10-14 00:22:00,
2013-10-13 20:27:00,64.3,61.6,30.13,East,95,0.0,0.0,91,0.00,,---,0.01,0.00,VWS V14.01,2013-10-14 00:27:00,
2013-10-13 20:30:00,64.2,61.5,30.13,East,95,0.0,0.0,91,0.00,,---,0.01,0.00,VWS V14.01,2013-10-14 00:30:00,
2013-10-13 20:32:00,64.3,61.6,30.13,East,95,0.0,0.0,91,0.00,,---,0.01,0.00,VWS V14.01,2013-10-14 00:32:00,
2013-10-13 20:37:00,64.2,61.5,30.13,East,95,0.0,0.0,91,0.00,,---,0.01,0.00,VWS V14.01,2013-10-14 00:37:00,
2013-10-13 20:40:00,64.2,61.5,30.13,East,94,0.0,0.0,91,0.00,,---,0.01,0.00,VWS V14.01,2013-10-14 00:40:00,
2013-10-13 20:42:00,64.2,61.5,30.13,East,95,0.0,0.0,91,0.00,,---,0.01,0.00,VWS V14.01,2013-10-14 00:42:00,
2013-10-13 20:47:00,64.2,61.5,30.13,East,95,0.0,0.0,91,0.00,,---,0.01,0.00,VWS V14.01,2013-10-14 00:47:00,
2013-10-13 20:50:00,64.2,61.2,30.13,East,95,0.0,0.0,90,0.00,,---,0.01,0.00,VWS V14.01,2013-10-14 00:50:00,
2013-10-13 20:53:00,64.2,61.5,30.13,East,95,0.0,0.0,91,0.00,,---,0.01,0.00,VWS V14.01,2013-10-14 00:53:00,
2013-10-13 20:58:00,64.2,61.2,30.13,East,95,0.0,0.0,90,0.00,,---,0.01,0.00,VWS V14.01,2013-10-14 00:58:00,
2013-10-13 21:00:00,64.0,61.6,30.13,East,95,0.0,0.0,92,0.00,,---,0.01,0.00,VWS V14.01,2013-10-14 01:00:00,
2013-10-13 21:03:00,64.1,61.1,30.13,East,95,0.0,0.0,90,0.00,,---,0.01,0.00,VWS V14.01,2013-10-14 01:03:00,
2013-10-13 21:08:00,64.0,61.6,30.13,East,95,0.0,0.0,92,0.00,,---,0.01,0.00,VWS V14.01,2013-10-14 01:08:00,
2013-10-13 21:10:00,63.9,61.2,30.14,East,95,0.0,0.0,91,0.00,,---,0.01,0.00,VWS V14.01,2013-10-14 01:10:00,
2013-10-13 21:13:00,64.0,61.3,30.14,East,95,0.0,0.0,91,0.00,,---,0.01,0.00,VWS V14.01,2013-10-14 01:13:00,
2013-10-13 21:18:00,63.9,61.2,30.14,East,95,0.0,0.0,91,0.00,,---,0.01,0.00,VWS V14.01,2013-10-14 01:18:00,
2013-10-13 21:20:00,63.8,61.1,30.14,East,95,0.0,0.0,91,0.00,,---,0.01,0.00,VWS V14.01,2013-10-14 01:20:00,
2013-10-13 21:23:00,63.9,61.2,30.14,East,95,0.0,0.0,91,0.00,,---,0.01,0.00,VWS V14.01,2013-10-14 01:23:00,
2013-10-13 21:28:00,63.8,61.1,30.13,East,95,0.0,0.0,91,0.00,,---,0.01,0.00,VWS V14.01,2013-10-14 01:28:00,
2013-10-13 21:30:00,63.7,61.0,30.14,East,95,0.0,0.0,91,0.00,,---,0.01,0.00,VWS V14.01,2013-10-14 01:30:00,
2013-10-13 21:34:00,63.8,61.1,30.14,East,95,0.0,0.0,91,0.00,,---,0.01,0.00,VWS V14.01,2013-10-14 01:34:00,
2013-10-13 21:39:00,63.7,61.0,30.14,East,95,0.0,0.0,91,0.00,,---,0.01,0.00,VWS V14.01,2013-10-14 01:39:00,
2013-10-13 21:40:00,63.6,60.9,30.14,East,95,0.0,0.0,91,0.00,,---,0.01,0.00,VWS V14.01,2013-10-14 01:40:00,
2013-10-13 21:44:00,63.6,60.9,30.14,East,95,0.0,0.0,91,0.00,,---,0.01,0.00,VWS V14.01,2013-10-14 01:44:00,
2013-10-13 21:49:00,63.6,60.9,30.14,East,95,0.0,0.0,91,0.00,,---,0.01,0.00,VWS V14.01,2013-10-14 01:49:00,
2013-10-13 21:50:00,63.5,60.8,30.14,East,95,0.0,0.0,91,0.00,,---,0.01,0.00,VWS V14.01,2013-10-14 01:50:00,
2013-10-13 21:54:00,63.5,60.8,30.14,East,95,0.0,0.0,91,0.00,,---,0.01,0.00,VWS V14.01,2013-10-14 01:54:00,
2013-10-13 21:59:00,63.5,60.8,30.14,East,95,0.0,0.0,91,0.00,,---,0.01,0.00,VWS V14.01,2013-10-14 01:59:00,
2013-10-13 22:00:00,63.5,61.1,30.14,East,95,0.0,0.0,92,0.00,,---,0.01,0.00,VWS V14.01,2013-10-14 02:00:00,
2013-10-13 22:04:00,63.5,61.1,30.14,East,95,0.0,0.0,92,0.00,,---,0.01,0.00,VWS V14.01,2013-10-14 02:04:00,
2013-10-13 22:10:00,63.5,61.1,30.14,East,95,0.0,0.0,92,0.00,,---,0.01,0.00,VWS V14.01,2013-10-14 02:10:00,
2013-10-13 22:15:00,63.6,61.2,30.14,East,95,0.0,0.0,92,0.00,,---,0.01,0.00,VWS V14.01,2013-10-14 02:15:00,
2013-10-13 22:20:00,63.6,60.9,30.14,East,95,0.0,0.0,91,0.00,,---,0.01,0.00,VWS V14.01,2013-10-14 02:20:00,
2013-10-13 22:25:00,63.6,60.9,30.14,East,95,0.0,0.0,91,0.00,,---,0.01,0.00,VWS V14.01,2013-10-14 02:25:00,
2013-10-13 22:30:00,63.6,60.9,30.14,East,95,0.0,0.0,91,0.00,,---,0.01,0.00,VWS V14.01,2013-10-14 02:30:00,
2013-10-13 22:35:00,63.6,60.9,30.14,East,95,0.0,0.0,91,0.00,,---,0.01,0.00,VWS V14.01,2013-10-14 02:35:00,
2013-10-13 22:40:00,63.6,60.9,30.15,East,95,0.0,0.0,91,0.00,,---,0.01,0.00,VWS V14.01,2013-10-14 02:40:00,
2013-10-13 22:46:00,63.6,60.9,30.14,East,95,0.0,0.0,91,0.00,,---,0.01,0.00,VWS V14.01,2013-10-14 02:46:00,
2013-10-13 22:50:00,63.5,60.8,30.14,East,95,0.0,0.0,91,0.00,,---,0.01,0.00,VWS V14.01,2013-10-14 02:50:00,
2013-10-13 22:51:00,63.5,60.8,30.14,East,95,0.0,0.0,91,0.00,,---,0.01,0.00,VWS V14.01,2013-10-14 02:51:00,
2013-10-13 22:56:00,63.5,60.8,30.14,East,95,0.0,0.0,91,0.00,,---,0.01,0.00,VWS V14.01,2013-10-14 02:56:00,
2013-10-13 23:00:00,63.4,60.7,30.15,East,95,0.0,0.0,91,0.00,,---,0.01,0.00,VWS V14.01,2013-10-14 03:00:00,
2013-10-13 23:01:00,63.5,60.8,30.14,East,95,0.0,0.0,91,0.00,,---,0.01,0.00,VWS V14.01,2013-10-14 03:01:00,
2013-10-13 23:06:00,63.4,60.7,30.15,East,95,0.0,0.0,91,0.00,,---,0.01,0.00,VWS V14.01,2013-10-14 03:06:00,
2013-10-13 23:10:00,63.2,60.5,30.14,East,95,0.0,0.0,91,0.00,,---,0.01,0.00,VWS V14.01,2013-10-14 03:10:00,
2013-10-13 23:11:00,63.3,60.6,30.15,East,95,0.0,0.0,91,0.00,,---,0.01,0.00,VWS V14.01,2013-10-14 03:11:00,
2013-10-13 23:16:00,63.2,60.5,30.14,East,95,0.0,0.0,91,0.00,,---,0.01,0.00,VWS V14.01,2013-10-14 03:16:00,
2013-10-13 23:20:00,62.9,60.5,30.14,East,95,0.0,0.0,92,0.00,,---,0.01,0.00,VWS V14.01,2013-10-14 03:20:00,
2013-10-13 23:22:00,63.1,60.4,30.14,East,95,0.0,0.0,91,0.00,,---,0.01,0.00,VWS V14.01,2013-10-14 03:22:00,
2013-10-13 23:27:00,62.9,60.5,30.14,East,95,0.0,0.0,92,0.00,,---,0.01,0.00,VWS V14.01,2013-10-14 03:27:00,
2013-10-13 23:30:00,62.7,60.3,30.14,East,95,0.0,0.0,92,0.00,,---,0.01,0.00,VWS V14.01,2013-10-14 03:30:00,
2013-10-13 23:32:00,62.8,60.5,30.14,East,95,0.0,0.0,92,0.00,,---,0.01,0.00,VWS V14.01,2013-10-14 03:32:00,
2013-10-13 23:37:00,62.7,60.3,30.14,East,95,0.0,0.0,92,0.00,,---,0.01,0.00,VWS V14.01,2013-10-14 03:37:00,
2013-10-13 23:40:00,62.6,60.2,30.14,East,95,0.0,0.0,92,0.00,,---,0.01,0.00,VWS V14.01,2013-10-14 03:40:00,
2013-10-13 23:42:00,62.7,60.3,30.14,East,95,0.0,0.0,92,0.00,,---,0.01,0.00,VWS V14.01,2013-10-14 03:42:00,
2013-10-13 23:47:00,62.6,60.2,30.14,East,95,0.0,0.0,92,0.00,,---,0.01,0.00,VWS V14.01,2013-10-14 03:47:00,
2013-10-13 23:50:00,62.4,60.3,30.14,East,95,0.0,0.0,93,0.00,,---,0.01,0.00,VWS V14.01,2013-10-14 03:50:00,
2013-10-13 23:53:00,62.5,60.2,30.14,East,95,0.0,0.0,92,0.00,,---,0.01,0.00,VWS V14.01,2013-10-14 03:53:00,
2013-10-13 23:58:00,62.4,60.3,30.14,East,95,0.0,0.0,93,0.00,,---,0.01,0.00,VWS V14.01,2013-10-14 03:58:00,